createdAt,value
2022-12-31T00:04:59.606Z,0.55
2022-12-31T00:10:04.523Z,0.52
2022-12-31T00:15:08.816Z,0.34
2022-12-31T00:20:12.880Z,0.42
2022-12-31T00:25:17.743Z,0.37
2022-12-31T00:30:21.095Z,0.32
2022-12-31T00:35:24.464Z,0.25
2022-12-31T00:40:30.353Z,0.18
2022-12-31T00:45:33.691Z,0.15
2022-12-31T00:50:36.865Z,0.13
2022-12-31T00:55:41.657Z,0.11
2022-12-31T01:00:45.008Z,0.10
2022-12-31T01:05:48.324Z,0.11
2022-12-31T01:11:10.725Z,0.09
2022-12-31T01:16:15.842Z,0.11
2022-12-31T01:21:20.198Z,0.11
2022-12-31T01:26:24.996Z,0.13
2022-12-31T01:31:29.407Z,0.12
2022-12-31T01:36:34.451Z,0.17
2022-12-31T01:41:41.586Z,0.17
2022-12-31T01:46:48.606Z,0.17
2022-12-31T01:51:54.975Z,0.16
2022-12-31T01:57:00.250Z,0.16
2022-12-31T02:02:03.820Z,0.22
2022-12-31T02:07:09.119Z,0.17
2022-12-31T02:12:14.246Z,0.20
2022-12-31T02:17:29.886Z,0.22
2022-12-31T02:22:48.807Z,0.29
2022-12-31T02:28:02.516Z,0.35
2022-12-31T02:33:16.368Z,0.37
2022-12-31T02:38:23.133Z,0.31
2022-12-31T02:43:27.294Z,0.23
2022-12-31T02:48:41.790Z,0.21
2022-12-31T02:54:05.738Z,0.22
2022-12-31T02:59:33.172Z,0.22
2022-12-31T03:04:37.989Z,0.20
2022-12-31T03:09:41.518Z,0.22
2022-12-31T03:14:44.942Z,0.20
2022-12-31T03:20:06.947Z,0.19
2022-12-31T03:25:29.988Z,0.13
2022-12-31T03:30:34.301Z,0.14
2022-12-31T03:35:40.109Z,0.08
2022-12-31T03:40:46.769Z,0.07
2022-12-31T03:45:51.897Z,0.10
2022-12-31T03:50:57.137Z,0.10
2022-12-31T03:56:00.468Z,0.11
2022-12-31T04:01:03.908Z,0.14
2022-12-31T04:06:09.102Z,0.16
2022-12-31T04:11:17.395Z,0.09
2022-12-31T04:16:23.971Z,0.05
2022-12-31T04:21:34.671Z,0.01
2022-12-31T04:26:38.974Z,-0.02
2022-12-31T04:31:42.268Z,-0.07
2022-12-31T04:36:47.248Z,-0.10
2022-12-31T04:41:50.546Z,-0.13
2022-12-31T04:46:53.789Z,-0.14
2022-12-31T04:51:58.515Z,-0.13
2022-12-31T04:57:01.887Z,-0.12
2022-12-31T05:02:05.527Z,-0.10
2022-12-31T05:07:10.533Z,-0.12
2022-12-31T05:12:13.829Z,-0.10
2022-12-31T05:17:17.035Z,-0.14
2022-12-31T05:22:31.060Z,-0.16
2022-12-31T05:27:35.019Z,-0.14
2022-12-31T05:32:38.319Z,-0.18
2022-12-31T05:37:43.103Z,-0.16
2022-12-31T05:42:46.351Z,-0.19
2022-12-31T05:47:49.799Z,-0.22
2022-12-31T05:52:54.565Z,-0.22
2022-12-31T05:57:57.918Z,-0.18
2022-12-31T06:03:01.344Z,-0.13
2022-12-31T06:08:06.545Z,-0.11
2022-12-31T06:13:10.241Z,-0.17
2022-12-31T06:18:13.674Z,-0.15
2022-12-31T06:23:18.345Z,-0.17
2022-12-31T06:28:22.603Z,-0.15
2022-12-31T06:33:35.482Z,-0.13
2022-12-31T06:38:41.830Z,-0.11
2022-12-31T06:43:45.715Z,-0.11
2022-12-31T06:48:49.714Z,-0.05
2022-12-31T06:53:55.122Z,0.02
2022-12-31T06:58:59.228Z,0.09
2022-12-31T07:04:18.569Z,0.20
2022-12-31T07:09:31.738Z,0.34
2022-12-31T07:14:42.017Z,0.37
2022-12-31T07:19:57.642Z,0.43
2022-12-31T07:25:03.627Z,0.50
2022-12-31T07:30:12.663Z,0.44
2022-12-31T07:35:23.403Z,0.34
2022-12-31T07:40:36.662Z,0.32
2022-12-31T07:45:47.222Z,0.31
2022-12-31T07:50:51.358Z,0.32
2022-12-31T07:55:58.592Z,0.38
2022-12-31T08:01:02.686Z,0.38
2022-12-31T08:06:13.469Z,0.35
2022-12-31T08:11:27.126Z,0.29
2022-12-31T08:16:31.141Z,0.31
2022-12-31T08:21:45.095Z,0.43
2022-12-31T08:27:03.401Z,0.51
2022-12-31T08:32:14.557Z,0.60
2022-12-31T08:37:25.196Z,0.71
2022-12-31T08:42:37.626Z,0.91
2022-12-31T08:47:48.648Z,0.95
2022-12-31T08:52:53.098Z,1.03
2022-12-31T08:58:11.151Z,1.26
2022-12-31T09:03:33.417Z,1.43
2022-12-31T09:08:48.223Z,1.45
2022-12-31T09:14:34.002Z,1.41
2022-12-31T09:19:37.453Z,1.45
2022-12-31T09:24:41.273Z,1.49
2022-12-31T09:29:57.338Z,1.49
2022-12-31T09:35:10.020Z,1.39
2022-12-31T09:40:46.625Z,1.33
2022-12-31T09:46:14.904Z,1.17
2022-12-31T09:51:29.993Z,1.11
2022-12-31T09:56:37.771Z,1.12
2022-12-31T10:01:51.609Z,1.14
2022-12-31T10:07:07.019Z,1.21
2022-12-31T10:12:31.512Z,1.17
2022-12-31T10:17:58.987Z,1.11
2022-12-31T10:23:37.937Z,1.04
2022-12-31T10:28:50.961Z,0.97
2022-12-31T10:34:13.792Z,0.82
2022-12-31T10:39:32.600Z,0.78
2022-12-31T10:45:14.267Z,0.86
2022-12-31T10:50:41.931Z,0.93
2022-12-31T10:56:22.265Z,0.98
2022-12-31T11:01:39.604Z,1.02
2022-12-31T11:07:15.368Z,1.10
2022-12-31T11:12:48.348Z,1.07
2022-12-31T11:18:01.945Z,0.98
2022-12-31T11:23:14.589Z,0.87
2022-12-31T11:28:42.857Z,0.73
2022-12-31T11:34:00.594Z,0.70
2022-12-31T11:39:30.825Z,0.66
2022-12-31T11:44:47.640Z,0.65
2022-12-31T11:50:04.884Z,0.63
2022-12-31T11:55:27.654Z,0.60
2022-12-31T12:00:34.407Z,0.58
2022-12-31T12:05:40.008Z,0.60
2022-12-31T12:10:46.780Z,0.59
2022-12-31T12:15:53.636Z,0.56
2022-12-31T12:21:06.617Z,0.51
2022-12-31T12:26:28.771Z,0.45
2022-12-31T12:31:34.395Z,0.42
2022-12-31T12:36:47.972Z,0.36
2022-12-31T12:42:03.755Z,0.25
2022-12-31T12:47:15.640Z,0.11
2022-12-31T12:52:43.124Z,0.22
2022-12-31T12:57:56.083Z,0.21
2022-12-31T13:04:07.370Z,0.14
2022-12-31T13:09:25.269Z,0.12
2022-12-31T13:14:37.555Z,0.10
2022-12-31T13:19:46.608Z,0.09
2022-12-31T13:25:01.677Z,0.12
2022-12-31T13:30:14.751Z,0.12
2022-12-31T13:35:26.483Z,0.14
2022-12-31T13:40:36.023Z,0.17
2022-12-31T13:45:44.829Z,0.14
2022-12-31T13:50:54.059Z,0.32
2022-12-31T13:56:04.198Z,0.34
2022-12-31T14:01:17.661Z,0.36
2022-12-31T14:06:30.028Z,0.32
2022-12-31T14:11:54.473Z,0.33
2022-12-31T14:22:31.568Z,0.31
2022-12-31T14:27:38.014Z,0.31
2022-12-31T14:32:54.392Z,0.38
2022-12-31T14:38:00.382Z,0.44
2022-12-31T14:43:11.700Z,0.48
2022-12-31T14:48:22.223Z,0.47
2022-12-31T14:53:26.110Z,0.47
2022-12-31T14:58:34.554Z,0.47
2022-12-31T15:03:45.001Z,0.48
2022-12-31T15:08:54.291Z,0.45
2022-12-31T15:14:10.504Z,0.40
2022-12-31T15:19:29.054Z,0.37
2022-12-31T15:24:32.843Z,0.36
2022-12-31T15:29:38.112Z,0.35
2022-12-31T15:34:41.192Z,0.30
2022-12-31T15:39:44.645Z,0.30
2022-12-31T15:44:50.833Z,0.28
2022-12-31T15:49:55.169Z,0.24
2022-12-31T15:54:58.749Z,0.22
2022-12-31T16:00:06.082Z,0.21
2022-12-31T16:05:17.963Z,0.17
2022-12-31T16:10:22.982Z,0.16
2022-12-31T16:15:28.768Z,0.17
2022-12-31T16:20:33.212Z,0.19
2022-12-31T16:25:37.105Z,0.22
2022-12-31T16:30:41.403Z,0.23
2022-12-31T16:35:44.701Z,0.25
2022-12-31T16:41:07.214Z,0.24
2022-12-31T16:46:15.313Z,0.18
2022-12-31T16:51:19.851Z,0.13
2022-12-31T16:56:27.591Z,0.13
2022-12-31T17:01:33.875Z,0.11
2022-12-31T17:06:37.030Z,0.12
2022-12-31T17:11:45.295Z,0.10
2022-12-31T17:17:02.258Z,0.10
2022-12-31T17:22:09.549Z,0.12
2022-12-31T17:27:12.789Z,0.18
2022-12-31T17:32:30.444Z,0.20
2022-12-31T17:37:34.923Z,0.23
2022-12-31T17:42:40.962Z,0.25
2022-12-31T17:47:48.219Z,0.22
2022-12-31T17:52:51.230Z,0.19
2022-12-31T17:57:55.490Z,0.14
2022-12-31T18:03:00.241Z,0.17
2022-12-31T18:08:03.292Z,0.17
2022-12-31T18:13:07.862Z,0.04
2022-12-31T18:18:24.041Z,-0.19
2022-12-31T18:23:29.742Z,-0.16
2022-12-31T18:28:40.325Z,-0.10
2022-12-31T18:33:45.010Z,0.04
2022-12-31T18:38:48.267Z,0.10
2022-12-31T18:43:51.739Z,0.11
2022-12-31T18:48:56.089Z,0.04
2022-12-31T18:53:59.573Z,0.05
2022-12-31T18:59:03.194Z,0.04
2022-12-31T19:04:12.765Z,-0.25
2022-12-31T19:09:43.294Z,-0.49
2022-12-31T19:14:38.867Z,-0.79
2022-12-31T19:19:43.432Z,-0.96
2022-12-31T19:24:46.935Z,-1.17
2022-12-31T19:29:49.830Z,-1.27
2022-12-31T19:34:54.160Z,-1.46
2022-12-31T19:39:57.105Z,-1.60
2022-12-31T19:45:00.138Z,-1.67
2022-12-31T19:50:04.754Z,-1.60
2022-12-31T19:55:08.518Z,-1.51
2022-12-31T20:00:14.630Z,-1.39
2022-12-31T20:05:19.836Z,-1.26
2022-12-31T20:10:22.753Z,-1.09
2022-12-31T20:15:26.002Z,-0.92
2022-12-31T20:20:30.490Z,-0.73
2022-12-31T20:25:33.479Z,-0.57
2022-12-31T20:30:38.660Z,-0.50
2022-12-31T20:35:43.191Z,-0.48
2022-12-31T20:40:47.147Z,-0.43
2022-12-31T20:45:50.501Z,-0.39
2022-12-31T20:50:57.424Z,-0.39
2022-12-31T20:56:04.709Z,-0.37
2022-12-31T21:01:08.169Z,-0.38
2022-12-31T21:06:13.882Z,-0.40
2022-12-31T21:11:34.198Z,-0.40
2022-12-31T21:16:37.340Z,-0.38
2022-12-31T21:21:41.852Z,-0.40
2022-12-31T21:26:44.969Z,-0.41
2022-12-31T21:31:47.967Z,-0.41
2022-12-31T21:36:52.531Z,-0.38
2022-12-31T21:41:55.573Z,-0.38
2022-12-31T21:47:39.777Z,-0.36
2022-12-31T21:52:45.367Z,-0.35
2022-12-31T21:58:24.151Z,-0.31
2022-12-31T22:03:28.042Z,-0.25
2022-12-31T22:08:32.937Z,-0.23
2022-12-31T22:13:36.339Z,-0.20
2022-12-31T22:18:40.596Z,-0.18
2022-12-31T22:23:45.052Z,-0.16
2022-12-31T22:28:48.649Z,-0.12
2022-12-31T22:33:51.651Z,-0.09
2022-12-31T22:38:59.049Z,-0.06
2022-12-31T22:44:04.789Z,0.00
2022-12-31T22:49:07.960Z,0.02
2022-12-31T22:54:12.700Z,0.00
2022-12-31T22:59:15.663Z,0.01
2022-12-31T23:04:18.890Z,0.03
2022-12-31T23:09:40.745Z,0.04
2022-12-31T23:15:01.505Z,0.00
2022-12-31T23:20:23.565Z,-0.01
2022-12-31T23:25:28.076Z,0.01
2022-12-31T23:30:31.092Z,-0.02
2022-12-31T23:35:34.159Z,-0.01
2022-12-31T23:40:38.640Z,-0.03
2022-12-31T23:45:41.704Z,-0.02
2022-12-31T23:50:49.286Z,0.01
2022-12-31T23:55:57.539Z,0.05
